sensor_id;sensor_type;location;lat;lon;timestamp;temperature;humidity
55091;DHT22;40985;53.180;5.800;2023-04-12T00:01:31;6.70;99.90
55091;DHT22;40985;53.180;5.800;2023-04-12T00:03:57;6.70;99.90
55091;DHT22;40985;53.180;5.800;2023-04-12T00:06:23;6.80;99.90
55091;DHT22;40985;53.180;5.800;2023-04-12T00:08:50;6.90;99.90
55091;DHT22;40985;53.180;5.800;2023-04-12T00:11:19;6.90;99.90
55091;DHT22;40985;53.180;5.800;2023-04-12T00:13:44;7.00;99.90
55091;DHT22;40985;53.180;5.800;2023-04-12T00:16:10;7.00;99.90
55091;DHT22;40985;53.180;5.800;2023-04-12T00:18:40;7.10;99.90
55091;DHT22;40985;53.180;5.800;2023-04-12T00:21:07;7.10;99.90
55091;DHT22;40985;53.180;5.800;2023-04-12T00:23:34;7.20;99.90
55091;DHT22;40985;53.180;5.800;2023-04-12T00:26:03;7.30;99.90
55091;DHT22;40985;53.180;5.800;2023-04-12T00:28:29;7.20;99.90
55091;DHT22;40985;53.180;5.800;2023-04-12T00:30:54;7.30;99.90
55091;DHT22;40985;53.180;5.800;2023-04-12T00:33:20;7.30;99.90
55091;DHT22;40985;53.180;5.800;2023-04-12T00:35:45;7.30;99.90
55091;DHT22;40985;53.180;5.800;2023-04-12T00:38:11;7.20;99.90
55091;DHT22;40985;53.180;5.800;2023-04-12T00:40:41;7.20;99.90
55091;DHT22;40985;53.180;5.800;2023-04-12T00:43:08;7.30;99.90
55091;DHT22;40985;53.180;5.800;2023-04-12T00:45:35;7.20;99.90
55091;DHT22;40985;53.180;5.800;2023-04-12T00:48:04;7.20;99.90
55091;DHT22;40985;53.180;5.800;2023-04-12T00:50:29;7.20;99.90
55091;DHT22;40985;53.180;5.800;2023-04-12T00:52:56;7.20;99.90
55091;DHT22;40985;53.180;5.800;2023-04-12T00:55:23;7.30;99.90
55091;DHT22;40985;53.180;5.800;2023-04-12T00:57:49;7.30;99.90
55091;DHT22;40985;53.180;5.800;2023-04-12T01:00:16;7.30;99.90
55091;DHT22;40985;53.180;5.800;2023-04-12T01:02:44;7.30;99.90
55091;DHT22;40985;53.180;5.800;2023-04-12T01:05:17;7.20;99.90
55091;DHT22;40985;53.180;5.800;2023-04-12T01:11:05;7.30;99.90
55091;DHT22;40985;53.180;5.800;2023-04-12T01:13:50;7.30;99.90
55091;DHT22;40985;53.180;5.800;2023-04-12T01:16:35;7.20;99.90
55091;DHT22;40985;53.180;5.800;2023-04-12T01:19:12;7.20;99.90
55091;DHT22;40985;53.180;5.800;2023-04-12T01:21:52;7.20;99.90
55091;DHT22;40985;53.180;5.800;2023-04-12T01:24:50;7.20;99.90
55091;DHT22;40985;53.180;5.800;2023-04-12T01:27:49;7.30;99.90
55091;DHT22;40985;53.180;5.800;2023-04-12T01:30:16;7.20;99.90
55091;DHT22;40985;53.180;5.800;2023-04-12T01:32:47;7.20;99.90
55091;DHT22;40985;53.180;5.800;2023-04-12T01:35:16;7.20;99.90
55091;DHT22;40985;53.180;5.800;2023-04-12T01:37:42;7.20;99.90
55091;DHT22;40985;53.180;5.800;2023-04-12T01:40:09;7.20;99.90
55091;DHT22;40985;53.180;5.800;2023-04-12T01:42:36;7.10;99.90
55091;DHT22;40985;53.180;5.800;2023-04-12T01:45:02;7.20;99.90
55091;DHT22;40985;53.180;5.800;2023-04-12T01:47:29;7.20;99.90
55091;DHT22;40985;53.180;5.800;2023-04-12T01:50:21;7.20;99.90
55091;DHT22;40985;53.180;5.800;2023-04-12T01:53:21;7.20;99.90
55091;DHT22;40985;53.180;5.800;2023-04-12T01:55:48;7.20;99.90
55091;DHT22;40985;53.180;5.800;2023-04-12T01:58:19;7.20;99.90
55091;DHT22;40985;53.180;5.800;2023-04-12T02:00:46;7.20;99.90
55091;DHT22;40985;53.180;5.800;2023-04-12T02:03:12;7.20;99.90
55091;DHT22;40985;53.180;5.800;2023-04-12T02:05:38;7.20;99.90
55091;DHT22;40985;53.180;5.800;2023-04-12T02:08:05;7.30;99.90
55091;DHT22;40985;53.180;5.800;2023-04-12T02:10:31;7.30;99.90
55091;DHT22;40985;53.180;5.800;2023-04-12T02:12:58;7.30;99.90
55091;DHT22;40985;53.180;5.800;2023-04-12T02:15:24;7.30;99.90
55091;DHT22;40985;53.180;5.800;2023-04-12T02:17:50;7.30;99.90
55091;DHT22;40985;53.180;5.800;2023-04-12T02:20:19;7.30;99.90
55091;DHT22;40985;53.180;5.800;2023-04-12T02:22:45;7.30;99.90
55091;DHT22;40985;53.180;5.800;2023-04-12T02:25:11;7.30;99.90
55091;DHT22;40985;53.180;5.800;2023-04-12T02:27:37;7.30;99.90
55091;DHT22;40985;53.180;5.800;2023-04-12T02:30:03;7.30;99.90
55091;DHT22;40985;53.180;5.800;2023-04-12T02:32:29;7.30;99.90
55091;DHT22;40985;53.180;5.800;2023-04-12T02:34:55;7.30;99.90
55091;DHT22;40985;53.180;5.800;2023-04-12T02:37:26;7.30;99.90
55091;DHT22;40985;53.180;5.800;2023-04-12T02:39:52;7.30;99.90
55091;DHT22;40985;53.180;5.800;2023-04-12T02:42:22;7.30;99.90
55091;DHT22;40985;53.180;5.800;2023-04-12T02:44:48;7.30;99.90
55091;DHT22;40985;53.180;5.800;2023-04-12T02:47:13;7.30;99.90
55091;DHT22;40985;53.180;5.800;2023-04-12T02:49:39;7.30;99.90
55091;DHT22;40985;53.180;5.800;2023-04-12T02:52:05;7.30;99.90
55091;DHT22;40985;53.180;5.800;2023-04-12T02:54:31;7.30;99.90
55091;DHT22;40985;53.180;5.800;2023-04-12T02:56:56;7.30;99.90
55091;DHT22;40985;53.180;5.800;2023-04-12T02:59:22;7.30;99.90
55091;DHT22;40985;53.180;5.800;2023-04-12T03:01:49;7.40;99.90
55091;DHT22;40985;53.180;5.800;2023-04-12T03:04:15;7.40;99.90
55091;DHT22;40985;53.180;5.800;2023-04-12T03:06:41;7.30;99.90
55091;DHT22;40985;53.180;5.800;2023-04-12T03:09:17;7.30;99.90
55091;DHT22;40985;53.180;5.800;2023-04-12T03:11:43;7.30;99.90
55091;DHT22;40985;53.180;5.800;2023-04-12T03:14:08;7.30;99.90
55091;DHT22;40985;53.180;5.800;2023-04-12T03:16:34;7.30;99.90
55091;DHT22;40985;53.180;5.800;2023-04-12T03:19:01;7.30;99.90
55091;DHT22;40985;53.180;5.800;2023-04-12T03:21:27;7.30;99.90
55091;DHT22;40985;53.180;5.800;2023-04-12T03:23:53;7.30;99.90
55091;DHT22;40985;53.180;5.800;2023-04-12T03:26:19;7.30;99.90
55091;DHT22;40985;53.180;5.800;2023-04-12T03:28:45;7.30;99.90
55091;DHT22;40985;53.180;5.800;2023-04-12T03:31:11;7.20;99.90
55091;DHT22;40985;53.180;5.800;2023-04-12T03:33:38;7.20;99.90
55091;DHT22;40985;53.180;5.800;2023-04-12T03:36:04;7.30;99.90
55091;DHT22;40985;53.180;5.800;2023-04-12T03:38:30;7.20;99.90
55091;DHT22;40985;53.180;5.800;2023-04-12T03:40:56;7.20;99.90
55091;DHT22;40985;53.180;5.800;2023-04-12T03:43:21;7.20;99.90
55091;DHT22;40985;53.180;5.800;2023-04-12T03:45:47;7.20;99.90
55091;DHT22;40985;53.180;5.800;2023-04-12T03:48:13;7.20;99.90
55091;DHT22;40985;53.180;5.800;2023-04-12T03:50:40;7.20;99.90
55091;DHT22;40985;53.180;5.800;2023-04-12T03:53:12;7.10;99.90
55091;DHT22;40985;53.180;5.800;2023-04-12T03:55:38;7.10;99.90
55091;DHT22;40985;53.180;5.800;2023-04-12T03:58:05;7.10;99.90
55091;DHT22;40985;53.180;5.800;2023-04-12T04:00:30;7.10;99.90
55091;DHT22;40985;53.180;5.800;2023-04-12T04:02:57;7.10;99.90
55091;DHT22;40985;53.180;5.800;2023-04-12T04:05:28;7.10;99.90
55091;DHT22;40985;53.180;5.800;2023-04-12T04:07:55;7.10;99.90
55091;DHT22;40985;53.180;5.800;2023-04-12T04:10:26;7.10;99.90
55091;DHT22;40985;53.180;5.800;2023-04-12T04:12:52;7.10;99.90
55091;DHT22;40985;53.180;5.800;2023-04-12T04:15:18;7.10;99.90
55091;DHT22;40985;53.180;5.800;2023-04-12T04:17:43;7.10;99.90
55091;DHT22;40985;53.180;5.800;2023-04-12T04:20:13;7.10;99.90
55091;DHT22;40985;53.180;5.800;2023-04-12T04:22:42;7.10;99.90
55091;DHT22;40985;53.180;5.800;2023-04-12T04:25:08;7.10;99.90
55091;DHT22;40985;53.180;5.800;2023-04-12T04:27:33;7.00;99.90
55091;DHT22;40985;53.180;5.800;2023-04-12T04:30:03;7.00;99.90
55091;DHT22;40985;53.180;5.800;2023-04-12T04:32:31;7.10;99.90
55091;DHT22;40985;53.180;5.800;2023-04-12T04:34:58;7.00;99.90
55091;DHT22;40985;53.180;5.800;2023-04-12T04:37:28;7.00;99.90
55091;DHT22;40985;53.180;5.800;2023-04-12T04:39:55;7.00;99.90
55091;DHT22;40985;53.180;5.800;2023-04-12T04:42:21;7.00;99.90
55091;DHT22;40985;53.180;5.800;2023-04-12T04:44:47;7.00;99.90
55091;DHT22;40985;53.180;5.800;2023-04-12T04:47:16;7.10;99.90
55091;DHT22;40985;53.180;5.800;2023-04-12T04:49:43;7.00;99.90
55091;DHT22;40985;53.180;5.800;2023-04-12T04:52:09;6.90;99.90
55091;DHT22;40985;53.180;5.800;2023-04-12T04:54:35;6.90;99.90
55091;DHT22;40985;53.180;5.800;2023-04-12T04:57:00;7.00;99.90
55091;DHT22;40985;53.180;5.800;2023-04-12T04:59:26;7.00;99.90
55091;DHT22;40985;53.180;5.800;2023-04-12T05:01:52;7.00;99.90
55091;DHT22;40985;53.180;5.800;2023-04-12T05:04:18;7.00;99.90
55091;DHT22;40985;53.180;5.800;2023-04-12T05:06:44;6.90;99.90
55091;DHT22;40985;53.180;5.800;2023-04-12T05:09:10;7.10;99.90
55091;DHT22;40985;53.180;5.800;2023-04-12T05:11:36;7.00;99.90
55091;DHT22;40985;53.180;5.800;2023-04-12T05:14:02;7.00;99.90
55091;DHT22;40985;53.180;5.800;2023-04-12T05:16:27;7.00;99.90
55091;DHT22;40985;53.180;5.800;2023-04-12T05:18:53;7.00;99.90
55091;DHT22;40985;53.180;5.800;2023-04-12T05:21:18;7.00;99.90
55091;DHT22;40985;53.180;5.800;2023-04-12T05:23:45;7.00;99.90
55091;DHT22;40985;53.180;5.800;2023-04-12T05:26:14;7.00;99.90
55091;DHT22;40985;53.180;5.800;2023-04-12T05:28:40;7.10;99.90
55091;DHT22;40985;53.180;5.800;2023-04-12T05:31:05;7.00;99.90
55091;DHT22;40985;53.180;5.800;2023-04-12T05:33:31;7.00;99.90
55091;DHT22;40985;53.180;5.800;2023-04-12T05:35:58;7.00;99.90
55091;DHT22;40985;53.180;5.800;2023-04-12T05:38:24;7.00;99.90
55091;DHT22;40985;53.180;5.800;2023-04-12T05:40:50;7.00;99.90
55091;DHT22;40985;53.180;5.800;2023-04-12T05:43:16;7.00;99.90
55091;DHT22;40985;53.180;5.800;2023-04-12T05:45:42;7.00;99.90
55091;DHT22;40985;53.180;5.800;2023-04-12T05:48:08;7.00;99.90
55091;DHT22;40985;53.180;5.800;2023-04-12T05:50:34;7.10;99.90
55091;DHT22;40985;53.180;5.800;2023-04-12T05:53:00;7.00;99.90
55091;DHT22;40985;53.180;5.800;2023-04-12T05:55:27;7.00;99.90
55091;DHT22;40985;53.180;5.800;2023-04-12T05:57:52;6.90;99.90
55091;DHT22;40985;53.180;5.800;2023-04-12T06:00:19;6.90;99.90
55091;DHT22;40985;53.180;5.800;2023-04-12T06:02:46;7.00;99.90
55091;DHT22;40985;53.180;5.800;2023-04-12T06:05:13;6.90;99.90
55091;DHT22;40985;53.180;5.800;2023-04-12T06:07:39;7.00;99.90
55091;DHT22;40985;53.180;5.800;2023-04-12T06:10:07;7.00;99.90
55091;DHT22;40985;53.180;5.800;2023-04-12T06:12:33;7.10;99.90
55091;DHT22;40985;53.180;5.800;2023-04-12T06:14:58;7.10;99.90
55091;DHT22;40985;53.180;5.800;2023-04-12T06:17:25;7.00;99.90
55091;DHT22;40985;53.180;5.800;2023-04-12T06:19:50;7.00;99.90
55091;DHT22;40985;53.180;5.800;2023-04-12T06:22:16;7.10;99.90
55091;DHT22;40985;53.180;5.800;2023-04-12T06:24:42;7.00;99.90
55091;DHT22;40985;53.180;5.800;2023-04-12T06:27:07;7.10;99.90
55091;DHT22;40985;53.180;5.800;2023-04-12T06:29:33;7.00;99.90
55091;DHT22;40985;53.180;5.800;2023-04-12T06:31:59;7.00;99.90
55091;DHT22;40985;53.180;5.800;2023-04-12T06:34:26;7.00;99.90
55091;DHT22;40985;53.180;5.800;2023-04-12T06:36:52;7.00;99.90
55091;DHT22;40985;53.180;5.800;2023-04-12T06:39:18;7.00;99.90
55091;DHT22;40985;53.180;5.800;2023-04-12T06:41:44;7.10;99.90
55091;DHT22;40985;53.180;5.800;2023-04-12T06:44:11;7.00;99.90
55091;DHT22;40985;53.180;5.800;2023-04-12T06:46:37;7.10;99.90
55091;DHT22;40985;53.180;5.800;2023-04-12T06:49:03;7.10;99.90
55091;DHT22;40985;53.180;5.800;2023-04-12T06:51:29;7.10;99.90
55091;DHT22;40985;53.180;5.800;2023-04-12T06:53:55;7.20;99.90
55091;DHT22;40985;53.180;5.800;2023-04-12T06:56:22;7.10;99.90
55091;DHT22;40985;53.180;5.800;2023-04-12T06:58:48;7.20;99.90
55091;DHT22;40985;53.180;5.800;2023-04-12T07:01:13;7.20;99.90
55091;DHT22;40985;53.180;5.800;2023-04-12T07:03:39;7.20;99.90
55091;DHT22;40985;53.180;5.800;2023-04-12T07:06:05;7.20;99.90
55091;DHT22;40985;53.180;5.800;2023-04-12T07:08:35;7.30;99.90
55091;DHT22;40985;53.180;5.800;2023-04-12T07:11:01;7.30;99.90
55091;DHT22;40985;53.180;5.800;2023-04-12T07:13:27;7.20;99.90
55091;DHT22;40985;53.180;5.800;2023-04-12T07:15:53;7.30;99.90
55091;DHT22;40985;53.180;5.800;2023-04-12T07:18:19;7.30;99.90
55091;DHT22;40985;53.180;5.800;2023-04-12T07:20:51;7.20;99.90
55091;DHT22;40985;53.180;5.800;2023-04-12T07:23:17;7.30;99.90
55091;DHT22;40985;53.180;5.800;2023-04-12T07:25:43;7.20;99.90
55091;DHT22;40985;53.180;5.800;2023-04-12T07:28:09;7.20;99.90
55091;DHT22;40985;53.180;5.800;2023-04-12T07:30:35;7.30;99.90
55091;DHT22;40985;53.180;5.800;2023-04-12T07:33:00;7.40;99.90
55091;DHT22;40985;53.180;5.800;2023-04-12T07:35:30;7.40;99.90
55091;DHT22;40985;53.180;5.800;2023-04-12T07:37:56;7.30;99.90
55091;DHT22;40985;53.180;5.800;2023-04-12T07:40:23;7.40;99.90
55091;DHT22;40985;53.180;5.800;2023-04-12T07:42:49;7.40;99.90
55091;DHT22;40985;53.180;5.800;2023-04-12T07:45:15;7.40;99.90
55091;DHT22;40985;53.180;5.800;2023-04-12T07:47:41;7.40;99.90
55091;DHT22;40985;53.180;5.800;2023-04-12T07:50:10;7.40;99.90
55091;DHT22;40985;53.180;5.800;2023-04-12T07:52:35;7.40;99.90
55091;DHT22;40985;53.180;5.800;2023-04-12T07:55:01;7.50;99.90
55091;DHT22;40985;53.180;5.800;2023-04-12T07:57:26;7.50;99.90
55091;DHT22;40985;53.180;5.800;2023-04-12T07:59:52;7.50;99.90
55091;DHT22;40985;53.180;5.800;2023-04-12T08:02:18;7.50;99.90
55091;DHT22;40985;53.180;5.800;2023-04-12T08:04:52;7.50;99.90
55091;DHT22;40985;53.180;5.800;2023-04-12T08:07:19;7.50;99.90
55091;DHT22;40985;53.180;5.800;2023-04-12T08:09:46;7.50;99.90
55091;DHT22;40985;53.180;5.800;2023-04-12T08:12:11;7.50;99.90
55091;DHT22;40985;53.180;5.800;2023-04-12T08:14:38;7.50;99.90
55091;DHT22;40985;53.180;5.800;2023-04-12T08:17:03;7.70;99.90
55091;DHT22;40985;53.180;5.800;2023-04-12T08:19:29;7.60;99.90
55091;DHT22;40985;53.180;5.800;2023-04-12T08:21:55;7.60;99.90
55091;DHT22;40985;53.180;5.800;2023-04-12T08:24:21;7.70;99.90
55091;DHT22;40985;53.180;5.800;2023-04-12T08:26:46;7.80;99.90
55091;DHT22;40985;53.180;5.800;2023-04-12T08:29:12;7.90;99.90
55091;DHT22;40985;53.180;5.800;2023-04-12T08:31:38;8.00;99.90
55091;DHT22;40985;53.180;5.800;2023-04-12T08:34:04;8.30;99.90
55091;DHT22;40985;53.180;5.800;2023-04-12T08:36:33;8.50;99.90
55091;DHT22;40985;53.180;5.800;2023-04-12T08:38:59;8.80;99.90
55091;DHT22;40985;53.180;5.800;2023-04-12T08:41:25;8.80;99.90
55091;DHT22;40985;53.180;5.800;2023-04-12T08:43:51;9.10;99.90
55091;DHT22;40985;53.180;5.800;2023-04-12T08:46:17;9.20;99.90
55091;DHT22;40985;53.180;5.800;2023-04-12T08:48:48;9.20;99.90
55091;DHT22;40985;53.180;5.800;2023-04-12T08:51:18;9.40;99.90
55091;DHT22;40985;53.180;5.800;2023-04-12T08:53:44;9.50;99.90
55091;DHT22;40985;53.180;5.800;2023-04-12T08:56:11;9.40;99.90
55091;DHT22;40985;53.180;5.800;2023-04-12T08:58:39;9.40;99.90
55091;DHT22;40985;53.180;5.800;2023-04-12T09:01:13;9.40;99.90
55091;DHT22;40985;53.180;5.800;2023-04-12T09:03:41;9.50;99.90
55091;DHT22;40985;53.180;5.800;2023-04-12T09:06:07;9.40;99.90
55091;DHT22;40985;53.180;5.800;2023-04-12T09:08:33;9.50;99.90
55091;DHT22;40985;53.180;5.800;2023-04-12T09:10:59;9.60;99.90
55091;DHT22;40985;53.180;5.800;2023-04-12T09:13:32;9.80;99.90
55091;DHT22;40985;53.180;5.800;2023-04-12T09:15:59;9.90;99.90
55091;DHT22;40985;53.180;5.800;2023-04-12T09:18:25;10.00;99.90
55091;DHT22;40985;53.180;5.800;2023-04-12T09:21:05;10.20;99.90
55091;DHT22;40985;53.180;5.800;2023-04-12T09:23:32;10.20;99.90
55091;DHT22;40985;53.180;5.800;2023-04-12T09:26:00;10.30;99.90
55091;DHT22;40985;53.180;5.800;2023-04-12T09:28:27;10.20;99.90
55091;DHT22;40985;53.180;5.800;2023-04-12T09:30:56;10.20;99.90
55091;DHT22;40985;53.180;5.800;2023-04-12T09:33:37;10.10;99.90
55091;DHT22;40985;53.180;5.800;2023-04-12T09:36:04;10.20;99.90
55091;DHT22;40985;53.180;5.800;2023-04-12T09:38:31;10.30;99.90
55091;DHT22;40985;53.180;5.800;2023-04-12T09:41:17;10.20;99.90
55091;DHT22;40985;53.180;5.800;2023-04-12T09:43:44;10.20;99.90
55091;DHT22;40985;53.180;5.800;2023-04-12T09:46:11;10.20;99.90
55091;DHT22;40985;53.180;5.800;2023-04-12T09:48:41;10.20;99.90
55091;DHT22;40985;53.180;5.800;2023-04-12T09:51:13;10.30;99.90
55091;DHT22;40985;53.180;5.800;2023-04-12T09:53:47;10.30;99.90
55091;DHT22;40985;53.180;5.800;2023-04-12T09:56:14;10.50;99.90
55091;DHT22;40985;53.180;5.800;2023-04-12T09:58:40;10.40;99.90
55091;DHT22;40985;53.180;5.800;2023-04-12T10:01:08;10.50;99.90
55091;DHT22;40985;53.180;5.800;2023-04-12T10:03:34;10.60;99.90
55091;DHT22;40985;53.180;5.800;2023-04-12T10:06:02;10.70;99.90
55091;DHT22;40985;53.180;5.800;2023-04-12T10:08:30;10.60;99.90
55091;DHT22;40985;53.180;5.800;2023-04-12T10:10:56;10.50;99.90
55091;DHT22;40985;53.180;5.800;2023-04-12T10:13:23;10.60;99.90
55091;DHT22;40985;53.180;5.800;2023-04-12T10:15:51;10.50;99.90
55091;DHT22;40985;53.180;5.800;2023-04-12T10:18:21;10.90;99.90
55091;DHT22;40985;53.180;5.800;2023-04-12T10:20:48;11.10;99.90
55091;DHT22;40985;53.180;5.800;2023-04-12T10:23:15;11.10;99.90
55091;DHT22;40985;53.180;5.800;2023-04-12T10:25:41;11.10;99.90
55091;DHT22;40985;53.180;5.800;2023-04-12T10:28:19;11.10;99.90
55091;DHT22;40985;53.180;5.800;2023-04-12T10:30:48;11.00;99.90
55091;DHT22;40985;53.180;5.800;2023-04-12T10:33:18;11.00;99.90
55091;DHT22;40985;53.180;5.800;2023-04-12T10:38:13;11.00;99.90
55091;DHT22;40985;53.180;5.800;2023-04-12T10:41:17;11.00;99.90
55091;DHT22;40985;53.180;5.800;2023-04-12T10:43:47;10.90;99.90
55091;DHT22;40985;53.180;5.800;2023-04-12T10:49:08;10.70;99.90
55091;DHT22;40985;53.180;5.800;2023-04-12T10:51:34;10.50;99.90
55091;DHT22;40985;53.180;5.800;2023-04-12T10:56:42;10.70;99.90
55091;DHT22;40985;53.180;5.800;2023-04-12T10:59:09;10.70;99.90
55091;DHT22;40985;53.180;5.800;2023-04-12T11:01:36;10.90;99.90
55091;DHT22;40985;53.180;5.800;2023-04-12T11:09:06;10.80;99.90
55091;DHT22;40985;53.180;5.800;2023-04-12T11:11:41;10.80;99.90
55091;DHT22;40985;53.180;5.800;2023-04-12T11:14:09;10.80;99.90
55091;DHT22;40985;53.180;5.800;2023-04-12T11:19:55;10.80;99.90
55091;DHT22;40985;53.180;5.800;2023-04-12T11:22:24;10.70;99.90
55091;DHT22;40985;53.180;5.800;2023-04-12T11:24:53;10.70;99.90
55091;DHT22;40985;53.180;5.800;2023-04-12T11:27:25;10.70;99.90
55091;DHT22;40985;53.180;5.800;2023-04-12T11:29:53;10.70;99.90
55091;DHT22;40985;53.180;5.800;2023-04-12T11:32:22;10.70;99.90
55091;DHT22;40985;53.180;5.800;2023-04-12T11:34:48;10.70;99.90
55091;DHT22;40985;53.180;5.800;2023-04-12T11:37:17;10.90;99.90
55091;DHT22;40985;53.180;5.800;2023-04-12T11:39:44;11.00;99.90
55091;DHT22;40985;53.180;5.800;2023-04-12T11:42:19;11.10;99.90
55091;DHT22;40985;53.180;5.800;2023-04-12T11:44:46;11.40;99.90
55091;DHT22;40985;53.180;5.800;2023-04-12T11:47:17;11.60;99.90
55091;DHT22;40985;53.180;5.800;2023-04-12T11:49:44;11.80;99.90
55091;DHT22;40985;53.180;5.800;2023-04-12T11:52:10;11.70;99.90
55091;DHT22;40985;53.180;5.800;2023-04-12T11:54:44;11.80;99.90
55091;DHT22;40985;53.180;5.800;2023-04-12T11:57:12;11.50;99.90
55091;DHT22;40985;53.180;5.800;2023-04-12T11:59:38;11.60;99.90
55091;DHT22;40985;53.180;5.800;2023-04-12T12:02:05;11.90;99.90
55091;DHT22;40985;53.180;5.800;2023-04-12T12:04:31;11.90;99.90
55091;DHT22;40985;53.180;5.800;2023-04-12T12:06:58;11.70;99.90
55091;DHT22;40985;53.180;5.800;2023-04-12T12:09:24;12.00;99.90
55091;DHT22;40985;53.180;5.800;2023-04-12T12:11:53;12.20;99.90
55091;DHT22;40985;53.180;5.800;2023-04-12T12:14:22;12.00;99.90
55091;DHT22;40985;53.180;5.800;2023-04-12T12:16:57;11.90;99.90
55091;DHT22;40985;53.180;5.800;2023-04-12T12:19:28;12.00;99.90
55091;DHT22;40985;53.180;5.800;2023-04-12T12:22:13;12.10;99.90
55091;DHT22;40985;53.180;5.800;2023-04-12T12:24:48;11.90;99.90
55091;DHT22;40985;53.180;5.800;2023-04-12T12:27:18;11.90;99.90
55091;DHT22;40985;53.180;5.800;2023-04-12T12:29:48;12.10;99.90
55091;DHT22;40985;53.180;5.800;2023-04-12T12:32:16;12.00;99.90
55091;DHT22;40985;53.180;5.800;2023-04-12T12:34:56;12.10;99.90
55091;DHT22;40985;53.180;5.800;2023-04-12T12:37:23;11.80;99.90
55091;DHT22;40985;53.180;5.800;2023-04-12T12:40:27;11.50;99.90
55091;DHT22;40985;53.180;5.800;2023-04-12T12:42:54;11.20;99.90
55091;DHT22;40985;53.180;5.800;2023-04-12T12:45:22;11.30;99.90
55091;DHT22;40985;53.180;5.800;2023-04-12T12:47:54;11.90;99.90
55091;DHT22;40985;53.180;5.800;2023-04-12T12:50:24;11.80;99.90
55091;DHT22;40985;53.180;5.800;2023-04-12T12:52:50;11.70;99.90
55091;DHT22;40985;53.180;5.800;2023-04-12T12:55:17;11.60;99.90
55091;DHT22;40985;53.180;5.800;2023-04-12T12:57:44;11.40;99.90
55091;DHT22;40985;53.180;5.800;2023-04-12T13:00:14;11.70;99.90
55091;DHT22;40985;53.180;5.800;2023-04-12T13:02:43;11.60;99.90
55091;DHT22;40985;53.180;5.800;2023-04-12T13:05:10;11.70;99.90
55091;DHT22;40985;53.180;5.800;2023-04-12T13:07:37;12.10;99.90
55091;DHT22;40985;53.180;5.800;2023-04-12T13:10:03;12.00;99.90
55091;DHT22;40985;53.180;5.800;2023-04-12T13:12:29;11.90;99.90
55091;DHT22;40985;53.180;5.800;2023-04-12T13:14:56;11.50;99.90
55091;DHT22;40985;53.180;5.800;2023-04-12T13:17:22;11.40;99.90
55091;DHT22;40985;53.180;5.800;2023-04-12T13:19:48;11.20;99.90
55091;DHT22;40985;53.180;5.800;2023-04-12T13:22:14;11.50;99.90
55091;DHT22;40985;53.180;5.800;2023-04-12T13:24:41;11.40;99.90
55091;DHT22;40985;53.180;5.800;2023-04-12T13:27:08;11.80;99.90
55091;DHT22;40985;53.180;5.800;2023-04-12T13:29:34;12.00;99.90
55091;DHT22;40985;53.180;5.800;2023-04-12T13:32:00;12.20;99.90
55091;DHT22;40985;53.180;5.800;2023-04-12T13:34:25;12.20;99.90
55091;DHT22;40985;53.180;5.800;2023-04-12T13:36:51;12.30;99.90
55091;DHT22;40985;53.180;5.800;2023-04-12T13:39:17;12.60;99.90
55091;DHT22;40985;53.180;5.800;2023-04-12T13:41:43;12.40;99.90
55091;DHT22;40985;53.180;5.800;2023-04-12T13:44:08;12.20;99.90
55091;DHT22;40985;53.180;5.800;2023-04-12T13:46:34;12.00;99.90
55091;DHT22;40985;53.180;5.800;2023-04-12T13:49:00;11.90;99.90
55091;DHT22;40985;53.180;5.800;2023-04-12T13:51:26;11.90;99.90
55091;DHT22;40985;53.180;5.800;2023-04-12T13:53:55;11.80;99.90
55091;DHT22;40985;53.180;5.800;2023-04-12T13:56:21;11.70;99.90
55091;DHT22;40985;53.180;5.800;2023-04-12T13:58:47;11.60;99.90
55091;DHT22;40985;53.180;5.800;2023-04-12T14:01:13;11.70;99.90
55091;DHT22;40985;53.180;5.800;2023-04-12T14:03:39;11.70;99.90
55091;DHT22;40985;53.180;5.800;2023-04-12T14:06:05;11.70;99.90
55091;DHT22;40985;53.180;5.800;2023-04-12T14:08:32;11.70;99.90
55091;DHT22;40985;53.180;5.800;2023-04-12T14:10:58;11.70;99.90
55091;DHT22;40985;53.180;5.800;2023-04-12T14:13:25;11.70;99.90
55091;DHT22;40985;53.180;5.800;2023-04-12T14:15:52;11.50;99.90
55091;DHT22;40985;53.180;5.800;2023-04-12T14:18:19;11.40;99.90
55091;DHT22;40985;53.180;5.800;2023-04-12T14:20:47;11.40;99.90
55091;DHT22;40985;53.180;5.800;2023-04-12T14:23:20;11.30;99.90
55091;DHT22;40985;53.180;5.800;2023-04-12T14:25:52;11.20;99.90
55091;DHT22;40985;53.180;5.800;2023-04-12T14:28:18;11.10;99.90
55091;DHT22;40985;53.180;5.800;2023-04-12T14:30:46;11.10;99.90
55091;DHT22;40985;53.180;5.800;2023-04-12T14:33:15;11.00;99.90
55091;DHT22;40985;53.180;5.800;2023-04-12T14:35:42;10.90;99.90
55091;DHT22;40985;53.180;5.800;2023-04-12T14:38:07;10.90;99.90
55091;DHT22;40985;53.180;5.800;2023-04-12T14:40:34;10.80;99.90
55091;DHT22;40985;53.180;5.800;2023-04-12T14:42:59;10.90;99.90
55091;DHT22;40985;53.180;5.800;2023-04-12T14:45:25;11.00;99.90
55091;DHT22;40985;53.180;5.800;2023-04-12T14:47:52;11.10;99.90
55091;DHT22;40985;53.180;5.800;2023-04-12T14:50:18;11.00;99.90
55091;DHT22;40985;53.180;5.800;2023-04-12T14:52:44;11.10;99.90
55091;DHT22;40985;53.180;5.800;2023-04-12T14:55:10;11.20;99.90
55091;DHT22;40985;53.180;5.800;2023-04-12T14:57:37;11.40;99.90
55091;DHT22;40985;53.180;5.800;2023-04-12T15:00:03;11.80;99.90
55091;DHT22;40985;53.180;5.800;2023-04-12T15:02:36;11.90;99.90
55091;DHT22;40985;53.180;5.800;2023-04-12T15:05:02;12.10;99.90
55091;DHT22;40985;53.180;5.800;2023-04-12T15:07:31;12.10;99.90
55091;DHT22;40985;53.180;5.800;2023-04-12T15:09:57;12.10;99.90
55091;DHT22;40985;53.180;5.800;2023-04-12T15:12:24;12.00;99.90
55091;DHT22;40985;53.180;5.800;2023-04-12T15:14:50;12.00;99.90
55091;DHT22;40985;53.180;5.800;2023-04-12T15:17:18;12.10;99.90
55091;DHT22;40985;53.180;5.800;2023-04-12T15:19:44;12.10;99.90
55091;DHT22;40985;53.180;5.800;2023-04-12T15:22:10;12.00;99.90
55091;DHT22;40985;53.180;5.800;2023-04-12T15:24:36;12.30;99.90
55091;DHT22;40985;53.180;5.800;2023-04-12T15:27:03;12.30;99.90
55091;DHT22;40985;53.180;5.800;2023-04-12T15:29:29;12.20;99.90
55091;DHT22;40985;53.180;5.800;2023-04-12T15:31:58;12.00;99.90
55091;DHT22;40985;53.180;5.800;2023-04-12T15:34:23;11.90;99.90
55091;DHT22;40985;53.180;5.800;2023-04-12T15:36:49;11.80;99.90
55091;DHT22;40985;53.180;5.800;2023-04-12T15:39:17;11.60;99.90
55091;DHT22;40985;53.180;5.800;2023-04-12T15:41:43;11.70;99.90
55091;DHT22;40985;53.180;5.800;2023-04-12T15:44:09;11.50;99.90
55091;DHT22;40985;53.180;5.800;2023-04-12T15:46:41;11.40;99.90
55091;DHT22;40985;53.180;5.800;2023-04-12T15:49:07;11.50;99.90
55091;DHT22;40985;53.180;5.800;2023-04-12T15:51:33;11.40;99.90
55091;DHT22;40985;53.180;5.800;2023-04-12T15:54:02;11.40;99.90
55091;DHT22;40985;53.180;5.800;2023-04-12T15:56:28;11.40;99.90
55091;DHT22;40985;53.180;5.800;2023-04-12T15:58:56;11.40;99.90
55091;DHT22;40985;53.180;5.800;2023-04-12T16:01:24;11.20;99.90
55091;DHT22;40985;53.180;5.800;2023-04-12T16:03:51;11.10;99.90